Time;durP1;ratioP1;P1;durP2;ratioP2;P2;SDS_P1;SDS_P2;PMS_P1;PMS_P2;Temp;Humidity;BMP_temperature;BMP_pressure;BME280_temperature;BME280_humidity;BME280_pressure;Samples;Min_cycle;Max_cycle;Signal;HPM_P1;HPM_P2
2022/11/03 00:00:36;;;;;;;10.20;4.03;;;;;;;;;;5097445;28;20237;-64
2022/11/03 00:03:04;;;;;;;9.87;4.27;;;;;;;;;;5095853;28;20561;-65
2022/11/03 00:08:17;;;;;;;8.43;4.13;;;;;;;;;;5096162;28;20193;-65
2022/11/03 00:10:44;;;;;;;7.60;3.90;;;;;;;;;;5098308;28;20239;-65
2022/11/03 00:13:13;;;;;;;6.23;3.47;;;;;;;;;;5097372;28;20329;-64
2022/11/03 00:15:48;;;;;;;5.63;3.50;;;;;;;;;;5097386;28;20285;-65
2022/11/03 00:18:16;;;;;;;7.53;4.07;;;;;;;;;;5097292;28;20568;-65
2022/11/03 00:20:44;;;;;;;6.33;3.70;;;;;;;;;;5098254;28;20228;-64
2022/11/03 00:23:11;;;;;;;13.57;5.10;;;;;;;;;;5095712;28;20197;-64
2022/11/03 00:25:39;;;;;;;7.90;3.83;;;;;;;;;;5098165;28;20241;-65
2022/11/03 00:28:07;;;;;;;6.80;3.60;;;;;;;;;;5095522;28;20799;-65
2022/11/03 00:30:35;;;;;;;8.73;3.77;;;;;;;;;;5096463;28;20618;-65
2022/11/03 00:33:04;;;;;;;7.07;3.80;;;;;;;;;;5097168;28;20237;-64
2022/11/03 00:35:32;;;;;;;8.13;3.87;;;;;;;;;;5097034;28;20222;-64
2022/11/03 00:38:00;;;;;;;9.00;3.93;;;;;;;;;;5096514;28;20205;-65
2022/11/03 00:40:27;;;;;;;10.07;4.37;;;;;;;;;;5096203;28;20202;-65
2022/11/03 00:42:55;;;;;;;10.20;4.07;;;;;;;;;;5096340;28;20233;-65
2022/11/03 00:45:23;;;;;;;7.50;3.60;;;;;;;;;;5096393;28;20656;-65
2022/11/03 00:50:42;;;;;;;4.73;3.80;;;;;;;;;;5087016;28;20293;-65
2022/11/03 00:53:10;;;;;;;5.20;3.13;;;;;;;;;;5095801;28;20239;-65
2022/11/03 00:55:38;;;;;;;8.13;3.27;;;;;;;;;;5096714;28;20732;-65
2022/11/03 00:58:05;;;;;;;5.43;3.23;;;;;;;;;;5095666;28;20236;-65
2022/11/03 01:00:33;;;;;;;8.23;3.90;;;;;;;;;;5096521;28;20236;-65
2022/11/03 01:03:01;;;;;;;6.40;3.13;;;;;;;;;;5093862;28;20251;-64
2022/11/03 01:08:15;;;;;;;8.40;3.90;;;;;;;;;;5096269;28;20232;-65
2022/11/03 01:11:42;;;;;;;13.60;4.40;;;;;;;;;;5094227;28;20229;-65
2022/11/03 01:13:30;;;;;;;9.43;4.77;;;;;;;;;;5096444;28;20253;-65
2022/11/03 01:15:58;;;;;;;10.13;4.00;;;;;;;;;;5097705;28;20247;-65
2022/11/03 01:18:26;;;;;;;8.13;4.13;;;;;;;;;;5090407;28;20263;-65
2022/11/03 01:20:54;;;;;;;8.77;4.30;;;;;;;;;;5097602;28;20240;-65
2022/11/03 01:23:23;;;;;;;5.57;3.53;;;;;;;;;;5096400;28;20218;-64
2022/11/03 01:25:51;;;;;;;9.20;4.30;;;;;;;;;;5096316;28;20218;-65
2022/11/03 01:28:19;;;;;;;10.07;4.20;;;;;;;;;;5095840;28;20229;-65
2022/11/03 01:30:46;;;;;;;10.40;5.17;;;;;;;;;;5096220;28;20229;-65
2022/11/03 01:33:14;;;;;;;12.73;5.20;;;;;;;;;;5096452;28;20237;-65
2022/11/03 01:35:42;;;;;;;9.97;4.97;;;;;;;;;;5096705;28;20669;-65
2022/11/03 01:38:10;;;;;;;7.83;4.43;;;;;;;;;;5095593;28;20225;-65
2022/11/03 01:40:39;;;;;;;6.20;3.80;;;;;;;;;;5096590;28;20245;-65
2022/11/03 01:43:16;;;;;;;11.43;4.67;;;;;;;;;;5095277;28;20728;-64
2022/11/03 01:45:44;;;;;;;10.50;4.00;;;;;;;;;;5091314;28;20256;-65
2022/11/03 01:48:12;;;;;;;7.97;4.57;;;;;;;;;;5096416;28;20229;-65
2022/11/03 01:50:41;;;;;;;12.10;3.93;;;;;;;;;;5096065;28;20240;-65
2022/11/03 01:53:09;;;;;;;8.83;4.17;;;;;;;;;;5098329;28;20233;-65
2022/11/03 01:55:38;;;;;;;10.87;4.57;;;;;;;;;;5099849;28;20230;-64
2022/11/03 01:58:10;;;;;;;9.97;4.13;;;;;;;;;;5098687;28;20231;-65
2022/11/03 02:00:38;;;;;;;8.57;4.27;;;;;;;;;;5099094;28;20229;-65
2022/11/03 02:03:06;;;;;;;7.33;4.40;;;;;;;;;;5099754;28;20236;-65
2022/11/03 02:05:34;;;;;;;8.13;4.20;;;;;;;;;;5099627;28;20316;-65
2022/11/03 02:08:05;;;;;;;8.47;4.50;;;;;;;;;;5096738;28;20604;-65
2022/11/03 02:10:37;;;;;;;9.00;4.33;;;;;;;;;;5099636;28;20193;-64
2022/11/03 02:13:10;;;;;;;12.43;4.20;;;;;;;;;;5096512;28;21005;-65
2022/11/03 02:15:39;;;;;;;7.60;4.10;;;;;;;;;;5096290;28;20641;-65
2022/11/03 02:18:08;;;;;;;7.33;4.60;;;;;;;;;;5099444;28;20194;-65
2022/11/03 02:20:37;;;;;;;7.53;3.97;;;;;;;;;;5097968;28;20543;-64
2022/11/03 02:23:20;;;;;;;10.60;4.27;;;;;;;;;;5098038;28;20205;-65
2022/11/03 02:25:50;;;;;;;7.67;3.80;;;;;;;;;;5098883;28;20231;-65
2022/11/03 02:28:19;;;;;;;9.27;3.73;;;;;;;;;;5097746;28;20318;-64
2022/11/03 02:30:51;;;;;;;8.77;3.53;;;;;;;;;;5097416;28;20244;-65
2022/11/03 02:33:31;;;;;;;7.67;3.67;;;;;;;;;;5097305;28;20280;-65
2022/11/03 02:36:01;;;;;;;6.93;3.40;;;;;;;;;;5097454;28;20236;-64
2022/11/03 02:38:30;;;;;;;7.67;3.60;;;;;;;;;;5095155;28;20288;-65
2022/11/03 02:41:03;;;;;;;5.67;3.50;;;;;;;;;;5095429;28;20209;-65
2022/11/03 02:43:31;;;;;;;7.23;3.50;;;;;;;;;;5097715;28;20692;-65
2022/11/03 02:45:59;;;;;;;5.53;3.60;;;;;;;;;;5096973;28;20626;-65
2022/11/03 02:48:27;;;;;;;11.50;3.60;;;;;;;;;;5096878;28;20219;-65
2022/11/03 02:50:55;;;;;;;7.93;3.40;;;;;;;;;;5098801;28;20197;-65
2022/11/03 02:53:23;;;;;;;7.67;3.80;;;;;;;;;;5095865;28;20284;-65
2022/11/03 02:55:55;;;;;;;6.33;3.60;;;;;;;;;;5097060;28;20747;-65
2022/11/03 02:58:27;;;;;;;6.10;3.70;;;;;;;;;;5097250;28;20197;-65
2022/11/03 03:00:56;;;;;;;6.83;3.27;;;;;;;;;;5097762;28;20235;-64
2022/11/03 03:03:26;;;;;;;6.47;3.53;;;;;;;;;;5096997;28;20213;-64
2022/11/03 03:05:58;;;;;;;4.93;3.07;;;;;;;;;;5097383;28;20281;-65
2022/11/03 03:08:26;;;;;;;11.03;3.63;;;;;;;;;;5097425;28;20198;-65
2022/11/03 03:10:54;;;;;;;7.77;3.30;;;;;;;;;;5098698;28;20285;-65
2022/11/03 03:13:22;;;;;;;8.13;3.83;;;;;;;;;;5096642;28;20217;-65
2022/11/03 03:15:57;;;;;;;9.90;3.40;;;;;;;;;;5098094;28;20248;-65
2022/11/03 03:18:27;;;;;;;7.37;3.53;;;;;;;;;;5097827;28;20201;-65
2022/11/03 03:20:56;;;;;;;7.00;3.40;;;;;;;;;;5099147;28;20229;-65
2022/11/03 03:23:25;;;;;;;4.40;2.87;;;;;;;;;;5097490;28;20653;-65
2022/11/03 03:25:54;;;;;;;6.33;3.10;;;;;;;;;;5097880;28;20257;-65
2022/11/03 03:28:23;;;;;;;7.87;2.73;;;;;;;;;;5096725;28;20205;-65
2022/11/03 03:30:54;;;;;;;6.57;3.10;;;;;;;;;;5099069;28;20281;-65
2022/11/03 03:33:22;;;;;;;6.43;3.00;;;;;;;;;;5098092;28;20305;-64
2022/11/03 03:35:51;;;;;;;4.40;2.80;;;;;;;;;;5098820;28;20216;-64
2022/11/03 03:38:20;;;;;;;4.43;2.80;;;;;;;;;;5096875;28;20289;-64
2022/11/03 03:40:53;;;;;;;5.47;3.00;;;;;;;;;;5098825;28;20269;-64
2022/11/03 03:43:21;;;;;;;6.80;2.83;;;;;;;;;;5097624;28;20662;-64
2022/11/03 03:45:51;;;;;;;7.40;3.43;;;;;;;;;;5097521;28;20701;-64
2022/11/03 03:48:21;;;;;;;5.00;2.80;;;;;;;;;;5096967;28;20229;-65
2022/11/03 03:50:49;;;;;;;5.17;3.03;;;;;;;;;;5097474;28;20198;-65
2022/11/03 03:53:18;;;;;;;7.13;3.40;;;;;;;;;;5097528;28;20240;-65
2022/11/03 03:55:47;;;;;;;5.83;3.43;;;;;;;;;;5098289;28;20275;-65
2022/11/03 03:58:15;;;;;;;3.77;2.70;;;;;;;;;;5098363;28;20237;-65
2022/11/03 04:00:43;;;;;;;4.53;2.73;;;;;;;;;;5098357;28;20621;-65
2022/11/03 04:03:13;;;;;;;7.83;3.60;;;;;;;;;;5098304;28;20209;-65
2022/11/03 04:05:42;;;;;;;4.87;3.37;;;;;;;;;;5096712;28;20331;-65
2022/11/03 04:08:10;;;;;;;6.07;2.77;;;;;;;;;;5096898;28;20667;-65
2022/11/03 04:10:38;;;;;;;4.73;3.00;;;;;;;;;;5098082;28;20241;-65
2022/11/03 04:24:07;;;;;;;8.17;3.53;;;;;;;;;;5096546;28;20252;-65
2022/11/03 04:26:35;;;;;;;5.80;3.20;;;;;;;;;;5097803;28;20685;-65
2022/11/03 04:29:04;;;;;;;6.60;3.10;;;;;;;;;;5095094;28;20289;-65
2022/11/03 04:31:34;;;;;;;6.63;3.37;;;;;;;;;;5095619;28;20285;-65
2022/11/03 04:34:03;;;;;;;4.43;3.10;;;;;;;;;;5094361;28;20295;-63
2022/11/03 04:36:32;;;;;;;4.97;3.00;;;;;;;;;;5096460;28;20194;-64
2022/11/03 04:39:00;;;;;;;5.60;2.77;;;;;;;;;;5096584;28;20632;-65
2022/11/03 04:41:29;;;;;;;4.83;2.67;;;;;;;;;;5096959;28;20219;-65
2022/11/03 04:43:57;;;;;;;3.63;2.60;;;;;;;;;;5096865;28;20221;-65
2022/11/03 04:46:26;;;;;;;5.23;3.07;;;;;;;;;;5096706;28;20316;-65
2022/11/03 04:48:54;;;;;;;5.03;2.63;;;;;;;;;;5095835;28;20202;-64
2022/11/03 04:51:24;;;;;;;6.00;2.90;;;;;;;;;;5096463;28;20232;-65
2022/11/03 04:53:54;;;;;;;5.40;2.50;;;;;;;;;;5096353;28;20324;-65
2022/11/03 04:56:23;;;;;;;3.10;2.60;;;;;;;;;;5097458;28;20267;-65
2022/11/03 04:58:52;;;;;;;5.57;2.60;;;;;;;;;;5095985;28;20289;-64
2022/11/03 05:01:21;;;;;;;3.80;2.50;;;;;;;;;;5097154;28;20201;-64
2022/11/03 05:03:52;;;;;;;5.23;2.63;;;;;;;;;;5095351;28;20279;-64
2022/11/03 05:06:22;;;;;;;6.57;2.77;;;;;;;;;;5095217;28;20712;-63
2022/11/03 05:08:52;;;;;;;5.30;2.10;;;;;;;;;;5091528;28;22393;-64
2022/11/03 05:11:25;;;;;;;8.13;2.33;;;;;;;;;;5095545;28;20569;-63
2022/11/03 05:13:53;;;;;;;5.30;2.60;;;;;;;;;;5093862;28;20249;-63
2022/11/03 05:16:21;;;;;;;7.97;2.90;;;;;;;;;;5094014;28;20285;-63
2022/11/03 05:18:49;;;;;;;3.20;1.90;;;;;;;;;;5095875;28;20284;-64
2022/11/03 05:21:18;;;;;;;4.63;2.53;;;;;;;;;;5097372;28;20224;-65
2022/11/03 05:23:47;;;;;;;5.00;2.67;;;;;;;;;;5096114;28;20257;-63
2022/11/03 05:26:17;;;;;;;3.17;2.37;;;;;;;;;;5095325;28;20304;-64
2022/11/03 05:28:48;;;;;;;3.50;2.43;;;;;;;;;;5098171;28;20240;-63
2022/11/03 05:31:23;;;;;;;6.60;2.70;;;;;;;;;;5097682;28;20201;-65
2022/11/03 05:33:52;;;;;;;9.87;2.60;;;;;;;;;;5099230;28;20220;-65
2022/11/03 05:36:21;;;;;;;5.03;2.70;;;;;;;;;;5100116;28;20224;-65
2022/11/03 05:38:54;;;;;;;5.17;2.60;;;;;;;;;;5099677;28;20225;-65
2022/11/03 05:41:23;;;;;;;4.90;2.50;;;;;;;;;;5085818;28;20236;-65
2022/11/03 05:43:56;;;;;;;3.53;2.37;;;;;;;;;;5100246;28;20780;-65
2022/11/03 05:46:26;;;;;;;8.37;2.63;;;;;;;;;;5097586;28;20291;-64
2022/11/03 05:48:54;;;;;;;3.07;2.50;;;;;;;;;;5097766;28;20246;-65
2022/11/03 05:51:24;;;;;;;6.67;2.87;;;;;;;;;;5099497;28;20224;-65
2022/11/03 05:53:53;;;;;;;5.37;2.77;;;;;;;;;;5098192;28;20221;-64
2022/11/03 05:56:22;;;;;;;5.70;2.40;;;;;;;;;;5098098;28;20225;-65
2022/11/03 05:58:50;;;;;;;4.27;2.23;;;;;;;;;;5098555;28;20202;-65
2022/11/03 06:01:23;;;;;;;3.17;2.10;;;;;;;;;;5099493;28;20628;-66
2022/11/03 06:03:51;;;;;;;4.47;2.07;;;;;;;;;;5095641;28;20213;-64
2022/11/03 06:06:22;;;;;;;5.63;2.27;;;;;;;;;;5098397;28;20694;-65
2022/11/03 06:09:00;;;;;;;8.67;2.27;;;;;;;;;;5097163;28;20229;-65
2022/11/03 06:11:31;;;;;;;4.87;2.10;;;;;;;;;;5096616;28;20240;-64
2022/11/03 06:13:59;;;;;;;4.70;1.87;;;;;;;;;;5098212;28;20655;-64
2022/11/03 06:16:32;;;;;;;7.67;1.77;;;;;;;;;;5097621;28;20592;-65
2022/11/03 06:19:00;;;;;;;3.40;2.17;;;;;;;;;;5098437;28;20225;-63
2022/11/03 06:21:28;;;;;;;5.40;1.97;;;;;;;;;;5097338;28;20233;-65
2022/11/03 06:23:55;;;;;;;2.77;1.63;;;;;;;;;;5098283;28;20225;-65
2022/11/03 06:26:25;;;;;;;5.17;1.90;;;;;;;;;;5099466;28;20274;-66
2022/11/03 06:28:53;;;;;;;3.73;1.90;;;;;;;;;;5095516;28;20229;-64
2022/11/03 06:31:21;;;;;;;4.50;1.93;;;;;;;;;;5099455;28;20220;-63
2022/11/03 06:33:52;;;;;;;7.70;2.37;;;;;;;;;;5096226;28;20684;-64
2022/11/03 06:36:20;;;;;;;8.27;2.20;;;;;;;;;;5097668;28;20197;-65
2022/11/03 06:38:50;;;;;;;5.10;3.00;;;;;;;;;;5098372;28;20202;-65
2022/11/03 06:41:20;;;;;;;3.70;2.10;;;;;;;;;;5099875;28;20255;-66
2022/11/03 06:43:48;;;;;;;3.17;1.90;;;;;;;;;;5097273;28;20633;-66
2022/11/03 06:46:19;;;;;;;3.73;1.90;;;;;;;;;;5099655;28;20251;-65
2022/11/03 06:48:47;;;;;;;5.43;2.10;;;;;;;;;;5099708;28;20197;-66
2022/11/03 06:51:18;;;;;;;3.37;2.10;;;;;;;;;;5099353;28;20244;-66
2022/11/03 06:53:46;;;;;;;3.37;2.20;;;;;;;;;;5098908;28;20225;-65
2022/11/03 06:56:15;;;;;;;5.23;2.17;;;;;;;;;;5099383;28;20238;-65
2022/11/03 06:58:44;;;;;;;2.50;2.13;;;;;;;;;;5099329;28;20686;-65
2022/11/03 07:01:14;;;;;;;2.77;1.67;;;;;;;;;;5098682;28;20205;-64
2022/11/03 07:03:42;;;;;;;4.03;2.00;;;;;;;;;;5098578;28;20675;-65
2022/11/03 07:06:20;;;;;;;5.13;2.07;;;;;;;;;;5098835;28;20268;-64
2022/11/03 07:08:48;;;;;;;4.57;2.27;;;;;;;;;;5096519;28;20220;-64
2022/11/03 07:11:16;;;;;;;5.70;2.57;;;;;;;;;;5098854;28;20221;-65
2022/11/03 07:13:44;;;;;;;4.40;2.53;;;;;;;;;;5098074;28;20214;-65
2022/11/03 07:16:13;;;;;;;4.00;2.40;;;;;;;;;;5098085;28;20202;-64
2022/11/03 07:18:46;;;;;;;4.10;2.30;;;;;;;;;;5097835;28;20257;-65
2022/11/03 07:21:38;;;;;;;4.00;2.20;;;;;;;;;;5098087;28;20297;-64
2022/11/03 07:24:13;;;;;;;8.17;2.27;;;;;;;;;;5081797;28;20260;-65
2022/11/03 07:26:42;;;;;;;2.13;1.93;;;;;;;;;;5097814;28;20283;-66
2022/11/03 07:29:12;;;;;;;6.83;2.07;;;;;;;;;;5093534;28;20229;-65
2022/11/03 07:31:39;;;;;;;3.50;1.83;;;;;;;;;;5096438;28;20220;-64
2022/11/03 07:34:11;;;;;;;6.53;1.97;;;;;;;;;;5092983;28;20234;-64
2022/11/03 07:36:38;;;;;;;2.43;1.70;;;;;;;;;;5097691;28;20293;-64
2022/11/03 07:39:08;;;;;;;5.57;2.20;;;;;;;;;;5097465;28;20197;-65
2022/11/03 07:41:37;;;;;;;3.27;2.10;;;;;;;;;;5097557;28;20276;-65
2022/11/03 07:44:05;;;;;;;4.70;2.20;;;;;;;;;;5097093;28;20256;-64
2022/11/03 07:46:33;;;;;;;5.23;1.93;;;;;;;;;;5095447;28;20251;-65
2022/11/03 07:49:02;;;;;;;5.40;2.17;;;;;;;;;;5097519;28;20312;-66
2022/11/03 07:51:31;;;;;;;3.97;2.00;;;;;;;;;;5095385;28;20198;-65
2022/11/03 07:54:02;;;;;;;6.77;2.80;;;;;;;;;;5095739;28;20252;-66
2022/11/03 07:56:34;;;;;;;4.20;2.03;;;;;;;;;;5093161;28;20229;-63
2022/11/03 07:59:06;;;;;;;4.13;2.17;;;;;;;;;;5092556;28;20197;-64
2022/11/03 08:01:36;;;;;;;2.40;2.20;;;;;;;;;;5098059;28;20236;-63
2022/11/03 08:04:05;;;;;;;5.60;2.00;;;;;;;;;;5094049;28;20221;-65
2022/11/03 08:06:33;;;;;;;5.30;1.97;;;;;;;;;;5096651;28;20198;-64
2022/11/03 08:09:01;;;;;;;4.97;1.93;;;;;;;;;;5092945;28;20260;-63
2022/11/03 08:11:28;;;;;;;5.97;1.87;;;;;;;;;;5097047;28;20197;-64
2022/11/03 08:13:56;;;;;;;5.63;1.90;;;;;;;;;;5094208;28;20659;-64
2022/11/03 08:16:26;;;;;;;8.07;2.30;;;;;;;;;;5094179;28;20213;-63
2022/11/03 08:18:54;;;;;;;4.87;1.83;;;;;;;;;;5095510;28;20236;-65
2022/11/03 08:21:22;;;;;;;7.23;1.77;;;;;;;;;;5093484;28;20204;-65
2022/11/03 08:23:50;;;;;;;4.53;1.97;;;;;;;;;;5092001;28;20232;-63
2022/11/03 08:26:18;;;;;;;2.80;1.80;;;;;;;;;;5094326;28;20233;-64
2022/11/03 08:28:46;;;;;;;5.73;1.80;;;;;;;;;;5095584;28;20221;-64
2022/11/03 08:31:14;;;;;;;3.90;1.60;;;;;;;;;;5096201;28;20560;-65
2022/11/03 08:33:43;;;;;;;3.73;1.60;;;;;;;;;;5092740;28;20232;-65
2022/11/03 08:36:11;;;;;;;1.90;1.70;;;;;;;;;;5095382;28;20253;-65
2022/11/03 08:38:39;;;;;;;3.90;1.63;;;;;;;;;;5093047;28;20276;-66
2022/11/03 08:41:06;;;;;;;4.83;1.70;;;;;;;;;;5097755;28;20240;-65
2022/11/03 08:43:34;;;;;;;3.90;1.70;;;;;;;;;;5094641;28;20335;-65
2022/11/03 08:46:02;;;;;;;4.73;1.70;;;;;;;;;;5096326;28;20206;-65
2022/11/03 08:48:39;;;;;;;6.33;2.47;;;;;;;;;;5093453;28;20244;-66
2022/11/03 08:51:12;;;;;;;5.20;2.27;;;;;;;;;;5097295;28;20231;-65
2022/11/03 08:53:41;;;;;;;2.73;1.60;;;;;;;;;;5093993;28;20668;-66
2022/11/03 08:56:09;;;;;;;5.97;1.93;;;;;;;;;;5095980;28;20233;-65
2022/11/03 08:58:40;;;;;;;3.93;1.67;;;;;;;;;;5097082;28;20621;-66
2022/11/03 09:01:08;;;;;;;6.63;2.20;;;;;;;;;;5097581;28;20221;-65
2022/11/03 09:03:36;;;;;;;8.53;1.80;;;;;;;;;;5100009;28;20624;-63
2022/11/03 09:06:04;;;;;;;6.57;2.20;;;;;;;;;;5101470;28;20215;-62
2022/11/03 09:08:33;;;;;;;7.37;3.07;;;;;;;;;;5100196;28;20308;-64
2022/11/03 09:11:20;;;;;;;8.87;2.47;;;;;;;;;;5100687;28;20313;-65
2022/11/03 09:13:48;;;;;;;6.10;1.90;;;;;;;;;;5096945;28;20255;-64
2022/11/03 09:16:16;;;;;;;3.20;1.70;;;;;;;;;;5100832;28;20228;-63
2022/11/03 09:18:44;;;;;;;2.07;1.17;;;;;;;;;;5097148;28;20197;-63
2022/11/03 09:21:12;;;;;;;5.10;1.60;;;;;;;;;;5097739;28;20850;-63
2022/11/03 09:23:41;;;;;;;5.07;1.50;;;;;;;;;;5099336;28;20267;-63
2022/11/03 09:26:09;;;;;;;3.93;1.73;;;;;;;;;;5099770;28;20209;-64
2022/11/03 09:28:37;;;;;;;2.33;1.70;;;;;;;;;;5099963;28;20336;-64
2022/11/03 09:31:04;;;;;;;6.00;1.60;;;;;;;;;;5100051;28;20228;-62
2022/11/03 09:33:32;;;;;;;1.83;1.30;;;;;;;;;;5099274;28;20301;-63
2022/11/03 09:36:00;;;;;;;8.40;2.57;;;;;;;;;;5100053;28;20243;-64
2022/11/03 09:38:28;;;;;;;12.70;3.37;;;;;;;;;;5099456;28;20225;-64
2022/11/03 09:40:57;;;;;;;6.20;2.30;;;;;;;;;;5099987;28;20202;-64
2022/11/03 09:43:25;;;;;;;2.27;1.50;;;;;;;;;;5099577;28;20228;-63
2022/11/03 09:45:53;;;;;;;4.37;1.70;;;;;;;;;;5099116;28;20285;-63
2022/11/03 09:48:21;;;;;;;2.97;1.37;;;;;;;;;;5097759;28;20260;-64
2022/11/03 09:50:52;;;;;;;2.80;1.67;;;;;;;;;;5098398;28;20205;-64
2022/11/03 09:53:21;;;;;;;3.83;1.40;;;;;;;;;;5100377;28;20230;-64
2022/11/03 09:55:48;;;;;;;1.37;1.20;;;;;;;;;;5100120;28;20708;-64
2022/11/03 09:58:18;;;;;;;3.77;1.60;;;;;;;;;;5099400;28;20270;-64
2022/11/03 10:00:46;;;;;;;2.83;1.97;;;;;;;;;;5097633;28;20649;-63
2022/11/03 10:03:15;;;;;;;2.97;1.60;;;;;;;;;;5097113;28;20201;-65
2022/11/03 10:05:44;;;;;;;3.33;1.60;;;;;;;;;;5098174;28;20205;-65
2022/11/03 10:08:21;;;;;;;1.80;1.60;;;;;;;;;;5095305;28;20249;-65
2022/11/03 10:10:49;;;;;;;3.50;1.40;;;;;;;;;;5097342;28;20205;-65
2022/11/03 10:13:23;;;;;;;2.90;1.57;;;;;;;;;;5086665;28;20197;-63
2022/11/03 10:15:51;;;;;;;2.73;1.87;;;;;;;;;;5097917;28;20251;-64
2022/11/03 10:18:19;;;;;;;2.63;1.87;;;;;;;;;;5097195;28;20228;-64
2022/11/03 10:20:47;;;;;;;2.63;1.60;;;;;;;;;;5090790;28;20201;-63
2022/11/03 10:23:14;;;;;;;3.43;1.50;;;;;;;;;;5098113;28;20232;-65
2022/11/03 10:25:43;;;;;;;3.03;1.67;;;;;;;;;;5098463;28;20198;-63
2022/11/03 10:28:17;;;;;;;5.13;1.30;;;;;;;;;;5098306;28;20205;-65
2022/11/03 10:30:50;;;;;;;2.30;2.00;;;;;;;;;;5097399;28;20209;-65
2022/11/03 10:33:39;;;;;;;7.77;1.57;;;;;;;;;;5096413;28;20225;-65
2022/11/03 10:36:23;;;;;;;4.10;1.40;;;;;;;;;;5089287;28;20560;-65
2022/11/03 10:38:50;;;;;;;2.63;1.60;;;;;;;;;;5094794;28;20638;-65
2022/11/03 10:41:19;;;;;;;6.03;1.60;;;;;;;;;;5095253;28;20237;-65
2022/11/03 10:43:59;;;;;;;4.03;1.50;;;;;;;;;;5096134;28;20255;-67
2022/11/03 10:46:28;;;;;;;6.60;2.00;;;;;;;;;;5096804;28;20201;-67
2022/11/03 10:49:17;;;;;;;3.90;1.33;;;;;;;;;;5093000;28;20308;-68
2022/11/03 10:51:47;;;;;;;1.53;1.23;;;;;;;;;;5095107;28;20206;-67
2022/11/03 10:54:15;;;;;;;1.47;1.30;;;;;;;;;;5095299;28;20220;-68
2022/11/03 10:56:43;;;;;;;1.77;1.67;;;;;;;;;;5055271;28;1180423;-69
2022/11/03 10:59:16;;;;;;;1.77;1.60;;;;;;;;;;5097923;28;20233;-68
2022/11/03 11:01:45;;;;;;;1.93;1.23;;;;;;;;;;5096377;28;20229;-71
2022/11/03 11:04:15;;;;;;;2.73;1.30;;;;;;;;;;5095547;28;20224;-69
2022/11/03 11:06:43;;;;;;;2.97;1.40;;;;;;;;;;5099255;28;20228;-70
2022/11/03 11:09:12;;;;;;;2.37;1.53;;;;;;;;;;5098425;28;20217;-71
2022/11/03 11:11:39;;;;;;;3.77;1.37;;;;;;;;;;5099227;28;20240;-71
2022/11/03 11:14:35;;;;;;;2.40;1.10;;;;;;;;;;5098433;28;20249;-71
2022/11/03 11:17:05;;;;;;;2.83;1.50;;;;;;;;;;5098511;28;20206;-71
2022/11/03 11:19:47;;;;;;;6.20;1.63;;;;;;;;;;5098585;28;20225;-71
2022/11/03 11:22:22;;;;;;;4.10;1.90;;;;;;;;;;5097652;28;20236;-71
2022/11/03 11:25:00;;;;;;;2.43;1.20;;;;;;;;;;5098094;28;20225;-71
2022/11/03 11:27:47;;;;;;;1.43;1.30;;;;;;;;;;5097054;28;20208;-65
2022/11/03 11:30:29;;;;;;;2.70;1.50;;;;;;;;;;5095410;28;20260;-66
2022/11/03 11:33:00;;;;;;;2.10;1.47;;;;;;;;;;5088869;28;20204;-66
2022/11/03 11:35:58;;;;;;;2.73;1.40;;;;;;;;;;5097415;28;20205;-66
2022/11/03 11:38:45;;;;;;;2.53;1.23;;;;;;;;;;5014462;28;20262;-70
2022/11/03 11:41:12;;;;;;;5.20;1.43;;;;;;;;;;5090055;28;20217;-70
2022/11/03 11:43:40;;;;;;;3.33;1.47;;;;;;;;;;5097291;28;20708;-70
2022/11/03 11:46:24;;;;;;;2.87;1.27;;;;;;;;;;5097996;28;20284;-69
2022/11/03 11:49:02;;;;;;;1.50;1.37;;;;;;;;;;5097448;28;20284;-70
2022/11/03 11:51:32;;;;;;;2.90;1.60;;;;;;;;;;5096589;28;20285;-70
2022/11/03 11:54:01;;;;;;;3.40;1.47;;;;;;;;;;5097335;28;20257;-70
2022/11/03 11:56:45;;;;;;;1.60;1.40;;;;;;;;;;5097965;28;20267;-70
2022/11/03 11:59:17;;;;;;;2.17;1.87;;;;;;;;;;5096607;28;20202;-70
2022/11/03 12:01:53;;;;;;;2.50;1.40;;;;;;;;;;5096784;28;20197;-70
2022/11/03 12:04:24;;;;;;;1.77;1.50;;;;;;;;;;5096914;28;20236;-70
2022/11/03 12:06:52;;;;;;;1.40;1.30;;;;;;;;;;5088766;28;20601;-70
2022/11/03 12:09:22;;;;;;;2.50;1.60;;;;;;;;;;5093299;28;20685;-70
2022/11/03 12:11:52;;;;;;;4.77;1.97;;;;;;;;;;5096864;28;20201;-70
2022/11/03 12:14:23;;;;;;;3.90;2.03;;;;;;;;;;5098227;28;20685;-69
2022/11/03 12:16:52;;;;;;;2.37;1.63;;;;;;;;;;5096449;28;20252;-70
2022/11/03 12:19:37;;;;;;;3.17;1.40;;;;;;;;;;5096861;28;20547;-70
2022/11/03 12:22:05;;;;;;;3.40;1.70;;;;;;;;;;5092697;28;20240;-70
2022/11/03 12:24:35;;;;;;;3.73;1.60;;;;;;;;;;5097423;28;20672;-70
2022/11/03 12:27:03;;;;;;;2.43;1.40;;;;;;;;;;5096513;28;20202;-69
2022/11/03 12:29:31;;;;;;;1.93;1.53;;;;;;;;;;5096903;28;20676;-69
2022/11/03 12:31:59;;;;;;;2.70;1.50;;;;;;;;;;5096237;28;20205;-69
2022/11/03 12:34:26;;;;;;;2.10;1.60;;;;;;;;;;5096731;28;20268;-69
2022/11/03 12:36:56;;;;;;;2.60;1.80;;;;;;;;;;5096355;28;20242;-69
2022/11/03 12:39:23;;;;;;;3.57;1.60;;;;;;;;;;5096504;28;20210;-69
2022/11/03 12:41:51;;;;;;;4.03;1.60;;;;;;;;;;5095665;28;20289;-69
2022/11/03 12:44:19;;;;;;;3.23;1.80;;;;;;;;;;5097337;28;20228;-70
2022/11/03 12:46:47;;;;;;;2.10;1.73;;;;;;;;;;5096529;28;20585;-69
2022/11/03 12:49:14;;;;;;;3.03;2.10;;;;;;;;;;5096798;28;20289;-69
2022/11/03 12:51:42;;;;;;;4.27;1.70;;;;;;;;;;5096151;28;20237;-70
2022/11/03 12:54:11;;;;;;;3.57;2.10;;;;;;;;;;5097167;28;20681;-69
2022/11/03 12:56:39;;;;;;;3.93;1.70;;;;;;;;;;5097353;28;20316;-69
2022/11/03 12:59:06;;;;;;;4.10;1.77;;;;;;;;;;5096483;28;20284;-70
2022/11/03 13:01:34;;;;;;;3.70;1.50;;;;;;;;;;5097540;28;20263;-70
2022/11/03 13:04:03;;;;;;;2.00;1.50;;;;;;;;;;5097378;28;20236;-69
2022/11/03 13:06:31;;;;;;;4.23;1.70;;;;;;;;;;5097406;28;20255;-69
2022/11/03 13:08:59;;;;;;;2.40;1.80;;;;;;;;;;5097123;28;20244;-69
2022/11/03 13:14:13;;;;;;;2.50;1.80;;;;;;;;;;5095240;28;20691;-70
2022/11/03 13:16:41;;;;;;;2.00;1.53;;;;;;;;;;5096703;28;20259;-70
2022/11/03 13:19:09;;;;;;;3.27;1.80;;;;;;;;;;5095749;28;20237;-69
2022/11/03 13:21:37;;;;;;;2.53;2.00;;;;;;;;;;5097451;28;20206;-69
2022/11/03 13:24:05;;;;;;;1.73;1.47;;;;;;;;;;5091616;28;20232;-70
2022/11/03 13:26:34;;;;;;;3.87;1.67;;;;;;;;;;5095334;28;20653;-70
2022/11/03 13:29:02;;;;;;;3.67;1.60;;;;;;;;;;5096603;28;20205;-70
2022/11/03 13:31:30;;;;;;;3.73;1.80;;;;;;;;;;5096603;28;20241;-70
2022/11/03 13:33:57;;;;;;;3.23;2.00;;;;;;;;;;5089439;28;20617;-70
2022/11/03 13:36:25;;;;;;;2.43;2.10;;;;;;;;;;5093703;28;20296;-71
2022/11/03 13:38:53;;;;;;;2.40;1.70;;;;;;;;;;5094578;28;20285;-70
2022/11/03 13:41:21;;;;;;;3.37;1.80;;;;;;;;;;5096736;28;20253;-71
2022/11/03 13:43:50;;;;;;;3.77;1.77;;;;;;;;;;5096509;28;20271;-70
2022/11/03 13:46:18;;;;;;;3.43;1.63;;;;;;;;;;5096385;28;20657;-70
2022/11/03 13:48:45;;;;;;;2.27;1.80;;;;;;;;;;5097350;28;20194;-70
2022/11/03 13:51:33;;;;;;;2.43;1.77;;;;;;;;;;5098059;28;20596;-70
2022/11/03 13:54:01;;;;;;;4.53;1.70;;;;;;;;;;5099272;28;20275;-70
2022/11/03 13:56:48;;;;;;;1.77;1.67;;;;;;;;;;5098614;28;20240;-70
2022/11/03 13:59:38;;;;;;;3.83;1.90;;;;;;;;;;5100024;28;20201;-70
2022/11/03 14:02:06;;;;;;;6.00;2.03;;;;;;;;;;5098632;28;20193;-70
2022/11/03 14:04:54;;;;;;;21.77;5.03;;;;;;;;;;5087306;28;20229;-70
2022/11/03 14:07:21;;;;;;;2.70;1.53;;;;;;;;;;5099338;28;20236;-71
2022/11/03 14:09:49;;;;;;;3.80;1.57;;;;;;;;;;5098764;28;20286;-70
2022/11/03 14:12:33;;;;;;;2.43;1.47;;;;;;;;;;5098996;28;20221;-70
2022/11/03 14:15:03;;;;;;;2.67;1.77;;;;;;;;;;5099586;28;20253;-70
2022/11/03 14:17:32;;;;;;;1.90;1.60;;;;;;;;;;5097166;28;20557;-70
2022/11/03 14:19:59;;;;;;;2.03;1.90;;;;;;;;;;5100218;28;20237;-70
2022/11/03 14:22:31;;;;;;;4.60;1.90;;;;;;;;;;5099224;28;20708;-71
2022/11/03 14:24:59;;;;;;;2.00;1.77;;;;;;;;;;5091614;28;20277;-69
2022/11/03 14:27:27;;;;;;;2.17;1.97;;;;;;;;;;5099072;28;20221;-70
2022/11/03 14:29:55;;;;;;;5.10;2.23;;;;;;;;;;5099842;28;20262;-69
2022/11/03 14:32:25;;;;;;;2.03;1.83;;;;;;;;;;5098979;28;20749;-70
2022/11/03 14:34:52;;;;;;;2.40;1.73;;;;;;;;;;5098322;28;20249;-70
2022/11/03 14:37:21;;;;;;;2.10;1.80;;;;;;;;;;5099090;28;20223;-70
2022/11/03 14:39:49;;;;;;;5.20;2.07;;;;;;;;;;5099103;28;20229;-70
2022/11/03 14:42:15;;;;;;;2.40;1.33;;;;;;;;;;5098234;28;20202;-70
2022/11/03 14:44:44;;;;;;;3.23;1.70;;;;;;;;;;5099864;28;20229;-70
2022/11/03 14:47:12;;;;;;;2.00;1.50;;;;;;;;;;5095981;28;20208;-70
2022/11/03 14:49:41;;;;;;;4.63;1.60;;;;;;;;;;5099688;28;20233;-70
2022/11/03 14:52:09;;;;;;;2.60;1.70;;;;;;;;;;5098290;28;20281;-70
2022/11/03 14:54:37;;;;;;;1.43;1.33;;;;;;;;;;5099336;28;20222;-70
2022/11/03 14:57:05;;;;;;;2.37;1.50;;;;;;;;;;5098168;28;20285;-70
2022/11/03 14:59:32;;;;;;;1.87;1.60;;;;;;;;;;5093388;28;20288;-69
2022/11/03 15:02:00;;;;;;;3.43;1.43;;;;;;;;;;5094725;28;20277;-70
2022/11/03 15:04:28;;;;;;;1.63;1.37;;;;;;;;;;5098757;28;20221;-70
2022/11/03 15:06:57;;;;;;;9.73;2.97;;;;;;;;;;5098178;28;20694;-70
2022/11/03 15:09:25;;;;;;;4.60;2.07;;;;;;;;;;5099241;28;20206;-69
2022/11/03 15:11:53;;;;;;;13.63;3.67;;;;;;;;;;5097259;28;20221;-70
2022/11/03 15:14:24;;;;;;;2.00;1.90;;;;;;;;;;5098623;28;20257;-69
2022/11/03 15:16:52;;;;;;;2.40;1.60;;;;;;;;;;5093000;28;20226;-70
2022/11/03 15:19:19;;;;;;;3.07;1.50;;;;;;;;;;5097213;28;20254;-70
2022/11/03 15:21:47;;;;;;;2.30;1.70;;;;;;;;;;5098600;28;20198;-69